Aviation Digital Data Service (ADDS)

Output produced by TAFs form (1349 UTC 28 February 2015)
found at http://www.aviationweather.gov/adds/tafs/
 
KALB 281132Z 2812/0112 31004KT P6SM FEW020 
     FM281500 29007KT P6SM FEW250 
     FM010000 00000KT P6SM BKN250